Terminal Aerodrome Forecast
Issued by NWS

Home | Current Version | Previous Version | Text Only | Print | Product List | Glossary On
Versions: 1 2 3 4 5 6 7 8 9 10 11 12 13 14 15 16 17 18 19 20 21 22 23 24 25 26 27 28 29 30 31 32 33 34 35 36 37 38
735
FTUS41 KAKQ 231731
TAFPHF
TAF
KPHF 231731Z 2318/2418 07009KT P6SM OVC005
     FM232300 03006KT P6SM VCSH OVC005
     FM240300 33010KT 3SM -RA BR OVC003
     FM240900 33012G20KT 3SM -RA BR OVC004
     FM241200 32012G20KT P6SM OVC007
     FM241500 31014G24KT P6SM OVC015=

USA.gov is the U.S. government's official web portal to all federal, state and local government web resources and services.